Time;durP1;ratioP1;P1;durP2;ratioP2;P2;SDS_P1;SDS_P2;PMS_P1;PMS_P2;Temp;Humidity;BMP_temperature;BMP_pressure;BME280_temperature;BME280_humidity;BME280_pressure;Samples;Min_cycle;Max_cycle;Signal;HPM_P1;HPM_P2
2023/01/04 06:25:23;;;;;;;3.92;2.70;;;;;;;;;;6184050;23;20024;-61
2023/01/04 06:27:49;;;;;;;9.85;5.90;;;;;;;;;;6182652;23;20017;-61
2023/01/04 06:30:15;;;;;;;8.40;6.93;;;;;;;;;;6184306;23;20001;-62
2023/01/04 06:32:42;;;;;;;7.88;6.82;;;;;;;;;;6183659;23;20001;-60
2023/01/04 06:35:08;;;;;;;7.43;5.85;;;;;;;;;;6184811;23;20017;-61
2023/01/04 06:37:34;;;;;;;16.15;5.78;;;;;;;;;;6183169;23;20005;-62
2023/01/04 06:40:00;;;;;;;11.85;5.25;;;;;;;;;;6181998;23;20028;-62
2023/01/04 06:42:45;;;;;;;7.85;3.65;;;;;;;;;;6183129;23;20006;-61
2023/01/04 06:45:11;;;;;;;4.20;2.97;;;;;;;;;;6183553;23;20443;-62
2023/01/04 06:47:39;;;;;;;7.65;2.85;;;;;;;;;;6183683;23;20008;-64
2023/01/04 06:50:05;;;;;;;8.98;3.50;;;;;;;;;;6182962;23;20012;-63
2023/01/04 06:52:31;;;;;;;14.80;3.58;;;;;;;;;;6183178;23;20519;-65
2023/01/04 06:54:57;;;;;;;22.20;3.40;;;;;;;;;;6183607;23;20033;-60
2023/01/04 06:57:23;;;;;;;15.63;3.55;;;;;;;;;;6183465;23;20124;-63
2023/01/04 06:59:49;;;;;;;22.80;4.05;;;;;;;;;;6184418;23;20048;-61
2023/01/04 07:02:15;;;;;;;11.63;3.08;;;;;;;;;;6185344;23;20088;-64
2023/01/04 07:04:41;;;;;;;7.50;2.22;;;;;;;;;;6185259;23;20009;-62
2023/01/04 07:07:07;;;;;;;12.25;2.63;;;;;;;;;;6185670;23;20001;-63
2023/01/04 07:09:34;;;;;;;9.05;3.13;;;;;;;;;;6185436;23;20080;-62
2023/01/04 07:12:00;;;;;;;7.15;2.40;;;;;;;;;;6184875;23;20104;-62
2023/01/04 07:14:26;;;;;;;8.25;2.05;;;;;;;;;;6185323;23;20051;-62
2023/01/04 07:16:52;;;;;;;8.43;2.30;;;;;;;;;;6185245;23;20076;-61
2023/01/04 07:19:18;;;;;;;8.77;2.22;;;;;;;;;;6185198;23;20009;-61
2023/01/04 07:21:44;;;;;;;12.93;2.30;;;;;;;;;;6184789;23;19997;-62
2023/01/04 07:24:10;;;;;;;10.27;3.03;;;;;;;;;;6185126;23;20098;-60
2023/01/04 07:26:36;;;;;;;10.07;2.72;;;;;;;;;;6185080;23;20073;-61
2023/01/04 07:29:15;;;;;;;9.93;2.67;;;;;;;;;;6185145;23;19997;-60
2023/01/04 07:31:49;;;;;;;9.05;2.33;;;;;;;;;;6183799;23;20000;-61
2023/01/04 07:34:16;;;;;;;17.20;3.38;;;;;;;;;;6185012;23;20524;-60
2023/01/04 07:36:42;;;;;;;11.90;2.27;;;;;;;;;;6183713;23;20428;-61
2023/01/04 07:39:10;;;;;;;9.73;3.10;;;;;;;;;;6184979;23;20008;-60
2023/01/04 07:41:37;;;;;;;11.32;2.40;;;;;;;;;;6184935;23;20331;-61
2023/01/04 07:44:03;;;;;;;7.07;1.85;;;;;;;;;;6185141;23;20004;-60
2023/01/04 07:46:29;;;;;;;5.03;2.35;;;;;;;;;;6184862;23;20012;-60
2023/01/04 07:48:55;;;;;;;14.18;2.72;;;;;;;;;;6184972;23;20001;-60
2023/01/04 07:51:21;;;;;;;12.82;2.20;;;;;;;;;;6184412;23;20001;-59
2023/01/04 07:53:47;;;;;;;7.95;2.20;;;;;;;;;;6184939;23;20008;-61
2023/01/04 07:56:13;;;;;;;6.80;2.03;;;;;;;;;;6185079;23;20001;-62
2023/01/04 07:58:40;;;;;;;16.77;2.70;;;;;;;;;;6184916;23;20011;-60
2023/01/04 08:01:06;;;;;;;;;;;;;;;;;;6185181;23;20005;-59
2023/01/04 08:03:32;;;;;;;12.18;2.67;;;;;;;;;;6184590;23;20285;-60
2023/01/04 08:06:01;;;;;;;7.60;2.55;;;;;;;;;;6185100;23;19997;-61
2023/01/04 08:08:27;;;;;;;10.52;2.15;;;;;;;;;;6183943;23;20001;-60
2023/01/04 08:10:53;;;;;;;9.95;2.17;;;;;;;;;;6184691;23;20024;-58
2023/01/04 08:13:19;;;;;;;6.00;1.80;;;;;;;;;;6184542;23;20005;-58
2023/01/04 08:15:51;;;;;;;3.72;1.63;;;;;;;;;;6186310;23;20093;-58
2023/01/04 08:18:17;;;;;;;7.47;1.92;;;;;;;;;;6187102;23;20478;-59
2023/01/04 08:20:43;;;;;;;6.25;2.20;;;;;;;;;;6187543;23;20026;-60
2023/01/04 08:23:09;;;;;;;7.30;1.92;;;;;;;;;;6186289;23;20367;-58
2023/01/04 08:25:35;;;;;;;9.73;1.60;;;;;;;;;;6184950;23;20428;-60
2023/01/04 08:28:01;;;;;;;7.05;1.92;;;;;;;;;;6184444;23;20009;-62
2023/01/04 08:30:27;;;;;;;9.30;2.20;;;;;;;;;;6184867;23;20005;-62
2023/01/04 08:32:54;;;;;;;8.57;1.63;;;;;;;;;;6184252;23;20009;-58
2023/01/04 08:35:20;;;;;;;14.90;3.63;;;;;;;;;;6184500;23;20005;-58
2023/01/04 08:37:46;;;;;;;6.22;1.92;;;;;;;;;;6184732;23;20001;-58
2023/01/04 08:40:12;;;;;;;8.85;2.65;;;;;;;;;;6184234;23;20007;-59
2023/01/04 08:42:38;;;;;;;11.43;2.85;;;;;;;;;;6184217;23;20021;-58
2023/01/04 08:45:04;;;;;;;7.78;2.55;;;;;;;;;;6184288;23;20076;-60
2023/01/04 08:47:31;;;;;;;8.27;2.20;;;;;;;;;;6184421;23;20008;-58
2023/01/04 08:49:57;;;;;;;16.40;2.20;;;;;;;;;;6184710;23;20005;-58
2023/01/04 08:52:23;;;;;;;3.85;1.80;;;;;;;;;;6183984;23;20005;-58
2023/01/04 08:54:49;;;;;;;5.68;2.13;;;;;;;;;;6184730;23;20012;-61
2023/01/04 08:57:16;;;;;;;6.55;2.30;;;;;;;;;;6184173;23;20032;-59
2023/01/04 08:59:42;;;;;;;7.70;2.35;;;;;;;;;;6184636;23;20001;-62
2023/01/04 09:02:19;;;;;;;4.57;1.75;;;;;;;;;;6183880;23;20013;-59
2023/01/04 09:04:45;;;;;;;3.03;1.65;;;;;;;;;;6184308;23;20052;-60
2023/01/04 09:07:10;;;;;;;6.95;1.95;;;;;;;;;;6184387;23;20005;-63
2023/01/04 09:09:36;;;;;;;7.00;2.00;;;;;;;;;;6183968;23;20001;-58
2023/01/04 09:12:02;;;;;;;5.22;2.03;;;;;;;;;;6183699;23;20486;-58
2023/01/04 09:14:28;;;;;;;6.05;2.28;;;;;;;;;;6157760;23;20012;-58
2023/01/04 09:16:54;;;;;;;6.25;2.67;;;;;;;;;;6184294;23;20004;-60
2023/01/04 09:19:20;;;;;;;2.78;1.55;;;;;;;;;;6184078;23;20431;-59
2023/01/04 09:21:46;;;;;;;5.95;2.20;;;;;;;;;;6183738;23;20017;-60
2023/01/04 09:24:13;;;;;;;6.05;2.05;;;;;;;;;;6183948;23;20485;-61
2023/01/04 09:26:39;;;;;;;2.40;1.52;;;;;;;;;;6184230;23;20351;-60
2023/01/04 09:29:05;;;;;;;4.20;1.48;;;;;;;;;;6184408;23;20336;-61
2023/01/04 09:31:31;;;;;;;8.52;1.70;;;;;;;;;;6183511;23;20419;-60
2023/01/04 09:33:58;;;;;;;4.20;1.77;;;;;;;;;;6184469;23;19997;-60
2023/01/04 09:36:24;;;;;;;6.07;1.85;;;;;;;;;;6183522;23;20001;-60
2023/01/04 09:38:51;;;;;;;3.15;1.20;;;;;;;;;;6183889;23;20005;-59
2023/01/04 09:41:20;;;;;;;2.90;1.42;;;;;;;;;;6182746;23;20395;-60
2023/01/04 09:44:08;;;;;;;2.55;1.27;;;;;;;;;;6182657;23;20088;-60
2023/01/04 09:46:55;;;;;;;3.17;2.03;;;;;;;;;;6183177;23;20009;-59
2023/01/04 09:49:21;;;;;;;3.58;2.33;;;;;;;;;;6183387;23;20028;-60
2023/01/04 09:52:12;;;;;;;7.20;1.85;;;;;;;;;;6183291;23;20001;-65
2023/01/04 09:54:53;;;;;;;3.00;1.45;;;;;;;;;;6183958;23;20024;-63
2023/01/04 09:57:23;;;;;;;8.50;2.30;;;;;;;;;;6183745;23;20005;-66
2023/01/04 09:59:53;;;;;;;5.78;2.03;;;;;;;;;;6184283;23;20009;-61
2023/01/04 10:02:29;;;;;;;6.93;2.05;;;;;;;;;;6183729;23;20032;-60
2023/01/04 10:04:58;;;;;;;11.02;1.73;;;;;;;;;;6184118;23;20001;-60
2023/01/04 10:07:24;;;;;;;21.25;3.42;;;;;;;;;;6183841;23;20012;-60
2023/01/04 10:09:50;;;;;;;14.77;2.45;;;;;;;;;;6183771;23;20350;-60
2023/01/04 10:12:25;;;;;;;19.63;2.67;;;;;;;;;;6183211;23;20005;-60
2023/01/04 10:14:51;;;;;;;10.75;1.90;;;;;;;;;;6183780;23;20001;-60
2023/01/04 10:17:36;;;;;;;17.45;2.45;;;;;;;;;;6183851;23;20005;-59
2023/01/04 10:20:08;;;;;;;22.73;2.72;;;;;;;;;;6183912;23;20312;-59
2023/01/04 10:22:53;;;;;;;12.35;2.58;;;;;;;;;;6183305;23;20002;-58
2023/01/04 10:25:22;;;;;;;19.88;3.15;;;;;;;;;;6183624;23;20005;-62
2023/01/04 10:28:13;;;;;;;10.95;2.95;;;;;;;;;;6183458;23;20013;-59
2023/01/04 10:30:48;;;;;;;10.88;2.80;;;;;;;;;;6183687;23;20262;-60
2023/01/04 10:33:34;;;;;;;26.05;3.22;;;;;;;;;;6183476;23;20001;-59
2023/01/04 10:36:00;;;;;;;17.48;3.15;;;;;;;;;;6164981;23;20515;-61
2023/01/04 10:38:29;;;;;;;14.40;2.72;;;;;;;;;;6185990;23;20080;-59
2023/01/04 10:40:57;;;;;;;17.48;2.38;;;;;;;;;;6183674;23;20036;-63
2023/01/04 10:43:29;;;;;;;15.32;3.05;;;;;;;;;;6158468;23;20005;-59
2023/01/04 10:46:04;;;;;;;23.25;2.88;;;;;;;;;;6158845;23;20001;-61
2023/01/04 10:48:45;;;;;;;19.73;2.25;;;;;;;;;;6185364;23;20005;-60
2023/01/04 10:51:13;;;;;;;12.55;2.33;;;;;;;;;;6185296;23;20001;-59
2023/01/04 10:53:40;;;;;;;11.60;2.63;;;;;;;;;;6184893;23;20036;-61
2023/01/04 10:56:15;;;;;;;28.73;2.90;;;;;;;;;;6184858;23;20008;-59
2023/01/04 10:58:46;;;;;;;21.05;3.83;;;;;;;;;;6185461;23;20001;-58
2023/01/04 11:01:22;;;;;;;10.98;2.42;;;;;;;;;;6185181;23;20427;-61
2023/01/04 11:03:52;;;;;;;14.07;2.78;;;;;;;;;;6185402;23;19997;-60
2023/01/04 11:06:39;;;;;;;16.48;2.58;;;;;;;;;;6185302;23;20459;-60
2023/01/04 11:09:13;;;;;;;9.80;2.00;;;;;;;;;;6185280;23;20008;-59
2023/01/04 11:11:41;;;;;;;15.55;2.28;;;;;;;;;;6158522;23;20005;-61
2023/01/04 11:14:09;;;;;;;13.07;1.80;;;;;;;;;;6185651;23;20009;-60
2023/01/04 11:16:35;;;;;;;8.93;2.05;;;;;;;;;;6185346;23;20005;-59
2023/01/04 11:19:03;;;;;;;19.52;2.50;;;;;;;;;;6185605;23;20001;-63
2023/01/04 11:21:31;;;;;;;13.38;1.90;;;;;;;;;;6184952;23;20031;-59
2023/01/04 11:24:03;;;;;;;6.38;1.85;;;;;;;;;;6185271;23;20081;-63
2023/01/04 11:26:42;;;;;;;14.35;1.83;;;;;;;;;;6185034;23;20009;-58
2023/01/04 11:29:26;;;;;;;8.95;2.00;;;;;;;;;;6185460;23;20063;-60
2023/01/04 11:32:15;;;;;;;19.30;1.92;;;;;;;;;;6184945;23;20001;-59
2023/01/04 11:34:51;;;;;;;14.55;2.50;;;;;;;;;;6185235;23;20005;-60
2023/01/04 11:37:23;;;;;;;14.07;2.42;;;;;;;;;;6185340;23;20335;-59
2023/01/04 11:39:49;;;;;;;11.90;2.08;;;;;;;;;;6184968;23;20004;-59
2023/01/04 11:42:21;;;;;;;3.63;1.50;;;;;;;;;;6158227;23;20005;-59
2023/01/04 11:45:00;;;;;;;3.35;1.65;;;;;;;;;;6185096;23;20009;-61
2023/01/04 11:47:29;;;;;;;8.70;1.60;;;;;;;;;;6184923;23;20005;-59
2023/01/04 11:49:55;;;;;;;10.85;1.77;;;;;;;;;;6184933;23;20005;-60
2023/01/04 11:52:29;;;;;;;10.98;1.80;;;;;;;;;;6184474;23;20001;-62
2023/01/04 11:54:55;;;;;;;10.57;2.13;;;;;;;;;;6184982;23;20051;-61
2023/01/04 11:57:21;;;;;;;8.20;1.75;;;;;;;;;;6184838;23;20005;-61
2023/01/04 12:00:22;;;;;;;2.95;1.08;;;;;;;;;;6185210;23;20005;-61
2023/01/04 12:02:49;;;;;;;8.75;1.50;;;;;;;;;;6064345;23;20003;-60
2023/01/04 12:05:20;;;;;;;8.57;1.52;;;;;;;;;;6064920;23;20007;-61
2023/01/04 12:07:46;;;;;;;9.75;1.98;;;;;;;;;;6064569;23;20014;-60
2023/01/04 12:10:18;;;;;;;9.25;1.65;;;;;;;;;;6064696;23;20007;-60
2023/01/04 12:12:44;;;;;;;8.70;1.52;;;;;;;;;;6064148;23;20034;-60
2023/01/04 12:15:17;;;;;;;5.25;1.65;;;;;;;;;;6064765;23;20398;-61
2023/01/04 12:17:49;;;;;;;6.40;1.33;;;;;;;;;;6064578;23;20018;-63
2023/01/04 12:20:17;;;;;;;5.22;1.70;;;;;;;;;;6064746;23;20058;-59
2023/01/04 12:22:44;;;;;;;2.35;1.30;;;;;;;;;;6064208;23;20456;-63
2023/01/04 12:25:39;;;;;;;4.15;1.60;;;;;;;;;;6064682;23;20011;-62
2023/01/04 12:28:05;;;;;;;6.30;1.60;;;;;;;;;;6064219;23;20046;-62
2023/01/04 12:30:34;;;;;;;5.00;1.60;;;;;;;;;;6064554;23;20078;-63
2023/01/04 12:33:20;;;;;;;2.30;1.42;;;;;;;;;;6064117;23;20017;-63
2023/01/04 12:36:00;;;;;;;10.73;1.85;;;;;;;;;;6072603;23;20319;-60
2023/01/04 12:38:44;;;;;;;3.63;1.45;;;;;;;;;;6151957;23;20009;-60
2023/01/04 12:41:10;;;;;;;3.38;1.10;;;;;;;;;;6151935;23;20010;-61
2023/01/04 12:43:37;;;;;;;3.38;1.23;;;;;;;;;;6151165;23;19997;-60
2023/01/04 12:49:26;;;;;;;7.43;1.55;;;;;;;;;;6151604;23;20371;-60
2023/01/04 12:52:07;;;;;;;1.90;1.13;;;;;;;;;;6151351;23;20044;-62
2023/01/04 12:54:45;;;;;;;3.70;1.00;;;;;;;;;;6151768;23;20388;-61
2023/01/04 12:57:16;;;;;;;7.70;1.75;;;;;;;;;;6151282;23;20009;-60
2023/01/04 13:00:01;;;;;;;6.53;1.50;;;;;;;;;;6151768;23;20002;-62
2023/01/04 13:02:29;;;;;;;5.50;1.85;;;;;;;;;;6151251;23;19998;-62
2023/01/04 13:05:19;;;;;;;7.22;1.42;;;;;;;;;;6173936;23;20052;-60
2023/01/04 13:07:48;;;;;;;3.75;1.25;;;;;;;;;;6168796;23;20055;-59
2023/01/04 13:10:30;;;;;;;2.90;1.33;;;;;;;;;;6184624;23;20365;-59
2023/01/04 13:13:02;;;;;;;2.25;0.98;;;;;;;;;;6184016;23;20080;-61
2023/01/04 13:15:43;;;;;;;6.70;1.60;;;;;;;;;;6184481;23;20032;-60
2023/01/04 13:18:18;;;;;;;3.70;1.33;;;;;;;;;;6184118;23;20009;-60
2023/01/04 13:20:45;;;;;;;3.78;1.08;;;;;;;;;;6184202;23;20374;-60
2023/01/04 13:23:11;;;;;;;2.20;1.45;;;;;;;;;;6183699;23;20004;-61
2023/01/04 13:25:37;;;;;;;2.10;0.90;;;;;;;;;;6184146;23;20313;-61
2023/01/04 13:28:04;;;;;;;5.00;1.10;;;;;;;;;;6183794;23;20052;-60
2023/01/04 13:30:38;;;;;;;1.83;1.17;;;;;;;;;;6184084;23;20013;-60
2023/01/04 13:33:08;;;;;;;1.88;0.95;;;;;;;;;;6183922;23;20005;-60
2023/01/04 13:35:34;;;;;;;2.33;1.35;;;;;;;;;;6183896;23;20012;-59
2023/01/04 13:38:00;;;;;;;3.10;1.40;;;;;;;;;;6183988;23;20032;-61
2023/01/04 13:40:27;;;;;;;5.15;1.08;;;;;;;;;;6183941;23;20004;-61
2023/01/04 13:43:13;;;;;;;4.20;1.23;;;;;;;;;;6183885;23;20005;-61
2023/01/04 13:45:58;;;;;;;3.15;1.33;;;;;;;;;;6184334;23;20028;-61
2023/01/04 13:48:25;;;;;;;3.70;1.25;;;;;;;;;;6184036;23;20008;-62
2023/01/04 13:50:59;;;;;;;2.55;1.17;;;;;;;;;;6184202;23;20027;-59
2023/01/04 13:53:26;;;;;;;1.95;1.20;;;;;;;;;;6183641;23;20447;-60
2023/01/04 13:55:53;;;;;;;2.03;1.07;;;;;;;;;;6183784;23;20001;-59
2023/01/04 13:58:20;;;;;;;3.45;1.58;;;;;;;;;;6157549;23;20016;-63
2023/01/04 14:00:49;;;;;;;2.22;1.17;;;;;;;;;;6183826;23;20001;-60
2023/01/04 14:03:33;;;;;;;5.78;1.50;;;;;;;;;;6183593;23;20143;-59
2023/01/04 14:06:20;;;;;;;3.72;1.35;;;;;;;;;;6183922;23;20011;-60
2023/01/04 21:29:20;;;;;;;17.30;2.90;;;;;;;;;;5069241;28;20813;-33
2023/01/04 21:31:46;;;;;;;16.27;4.07;;;;;;;;;;5068660;28;20028;-33
2023/01/04 21:34:12;;;;;;;26.55;3.70;;;;;;;;;;5069229;28;20499;-33
2023/01/04 21:36:38;;;;;;;16.50;3.50;;;;;;;;;;5068975;28;20519;-37
2023/01/04 21:39:04;;;;;;;8.70;3.35;;;;;;;;;;5069085;28;20056;-34
2023/01/04 21:41:30;;;;;;;19.35;3.70;;;;;;;;;;5067289;28;20029;-34
2023/01/04 21:43:57;;;;;;;6.60;3.00;;;;;;;;;;5069593;28;20021;-34
2023/01/04 21:46:23;;;;;;;17.38;2.97;;;;;;;;;;5070431;28;20095;-34
2023/01/04 21:48:52;;;;;;;8.18;2.60;;;;;;;;;;5068522;28;20021;-33
2023/01/04 21:51:18;;;;;;;21.80;3.35;;;;;;;;;;5076325;28;20020;-33
2023/01/04 21:53:44;;;;;;;10.60;3.10;;;;;;;;;;5077492;28;20530;-33
2023/01/04 21:56:16;;;;;;;14.15;2.60;;;;;;;;;;5068440;28;20024;-33
2023/01/04 21:58:42;;;;;;;13.65;2.83;;;;;;;;;;5068470;28;20027;-34
2023/01/04 22:01:13;;;;;;;8.38;2.38;;;;;;;;;;5068503;28;20017;-34
2023/01/04 22:03:39;;;;;;;11.57;3.25;;;;;;;;;;5067821;28;20102;-34
2023/01/04 22:06:05;;;;;;;9.52;3.65;;;;;;;;;;5067935;28;20032;-39
2023/01/04 22:08:32;;;;;;;15.18;3.13;;;;;;;;;;5073818;28;20036;-39
2023/01/04 22:10:57;;;;;;;29.40;4.00;;;;;;;;;;5068699;28;20396;-37
2023/01/04 22:13:24;;;;;;;20.35;3.20;;;;;;;;;;5066638;28;20019;-37
2023/01/04 22:15:50;;;;;;;8.40;2.30;;;;;;;;;;5067050;28;20028;-37
2023/01/04 22:18:17;;;;;;;10.57;3.22;;;;;;;;;;5068297;28;20469;-37
2023/01/04 22:20:43;;;;;;;13.80;2.93;;;;;;;;;;5066780;28;20032;-37
2023/01/04 22:23:09;;;;;;;8.52;2.95;;;;;;;;;;5066383;28;20281;-37
2023/01/04 22:25:35;;;;;;;10.18;3.33;;;;;;;;;;5068016;28;20031;-37
2023/01/04 22:28:01;;;;;;;17.80;2.90;;;;;;;;;;5067941;28;20083;-37
2023/01/04 22:30:27;;;;;;;5.13;2.70;;;;;;;;;;5068069;28;20469;-37
2023/01/04 22:32:53;;;;;;;6.32;2.83;;;;;;;;;;5066406;28;20025;-37
2023/01/04 22:35:20;;;;;;;12.50;2.78;;;;;;;;;;5068038;28;20503;-37
2023/01/04 22:37:46;;;;;;;12.18;3.20;;;;;;;;;;5067829;28;20107;-37
2023/01/04 22:40:12;;;;;;;11.93;2.75;;;;;;;;;;5057239;28;20061;-36
2023/01/04 22:42:38;;;;;;;11.02;3.55;;;;;;;;;;5054353;28;20100;-37
2023/01/04 22:45:05;;;;;;;6.07;2.88;;;;;;;;;;5054425;28;20477;-37
2023/01/04 22:47:31;;;;;;;6.93;2.60;;;;;;;;;;5054339;28;20377;-37
2023/01/04 22:49:57;;;;;;;7.97;2.90;;;;;;;;;;5054433;28;20388;-37
2023/01/04 22:52:23;;;;;;;28.75;3.38;;;;;;;;;;5054169;28;20021;-37
2023/01/04 22:54:49;;;;;;;9.55;3.72;;;;;;;;;;5054294;28;20095;-36
2023/01/04 22:57:15;;;;;;;9.30;2.83;;;;;;;;;;5054396;28;20025;-37
2023/01/04 22:59:41;;;;;;;5.28;2.45;;;;;;;;;;5054224;28;20384;-37
2023/01/04 23:02:07;;;;;;;6.63;3.08;;;;;;;;;;5054021;28;20021;-37
2023/01/04 23:04:33;;;;;;;12.45;2.97;;;;;;;;;;5054127;28;20499;-37
2023/01/04 23:06:59;;;;;;;9.45;2.88;;;;;;;;;;5054050;28;20063;-37
2023/01/04 23:09:25;;;;;;;12.35;3.53;;;;;;;;;;5054075;28;20024;-37
2023/01/04 23:11:51;;;;;;;9.90;2.60;;;;;;;;;;5053544;28;20718;-37
2023/01/04 23:14:17;;;;;;;7.13;3.00;;;;;;;;;;5053843;28;20060;-38
2023/01/04 23:16:43;;;;;;;6.07;2.70;;;;;;;;;;5053706;28;20025;-38
2023/01/04 23:19:10;;;;;;;13.68;3.25;;;;;;;;;;5053870;28;20463;-38
2023/01/04 23:21:36;;;;;;;8.40;3.43;;;;;;;;;;5053505;28;20033;-38
2023/01/04 23:24:02;;;;;;;12.25;3.20;;;;;;;;;;5053627;28;20032;-38
2023/01/04 23:26:29;;;;;;;7.00;3.15;;;;;;;;;;5052226;28;20059;-38
2023/01/04 23:28:55;;;;;;;7.77;3.60;;;;;;;;;;5053445;28;20107;-38
2023/01/04 23:31:22;;;;;;;6.72;2.72;;;;;;;;;;5053482;28;20032;-39
2023/01/04 23:33:52;;;;;;;7.07;2.60;;;;;;;;;;5053610;28;20018;-38
2023/01/04 23:36:20;;;;;;;5.25;2.80;;;;;;;;;;5052174;28;20052;-39
2023/01/04 23:38:50;;;;;;;5.72;2.58;;;;;;;;;;5053341;28;20025;-39
2023/01/04 23:41:16;;;;;;;6.75;3.03;;;;;;;;;;5053258;28;20541;-41
2023/01/04 23:43:42;;;;;;;10.65;3.58;;;;;;;;;;5053385;28;20033;-40
2023/01/04 23:46:10;;;;;;;10.38;3.25;;;;;;;;;;5053331;28;20025;-38
2023/01/04 23:48:36;;;;;;;8.68;3.20;;;;;;;;;;5053136;28;20032;-38
2023/01/04 23:51:02;;;;;;;9.00;3.10;;;;;;;;;;5052235;28;20021;-38
2023/01/04 23:53:28;;;;;;;5.82;3.25;;;;;;;;;;5052897;28;20029;-41
2023/01/04 23:55:58;;;;;;;5.53;3.22;;;;;;;;;;5051736;28;20105;-38
2023/01/04 23:58:26;;;;;;;6.72;2.47;;;;;;;;;;5051761;28;20358;-36
